Time;durP1;ratioP1;P1;durP2;ratioP2;P2;SDS_P1;SDS_P2;PMS_P1;PMS_P2;Temp;Humidity;BMP_temperature;BMP_pressure;BME280_temperature;BME280_humidity;BME280_pressure;Samples;Min_cycle;Max_cycle;Signal;HPM_P1;HPM_P2
2023/04/02 00:01:25;;;;;;;14.57;9.65;;;;;;;;;;4925158;29;20227;-69
2023/04/02 00:03:58;;;;;;;11.33;9.07;;;;;;;;;;4939614;28;20483;-69
2023/04/02 00:06:24;;;;;;;10.37;8.47;;;;;;;;;;4917617;29;20239;-69
2023/04/02 00:08:50;;;;;;;10.77;8.40;;;;;;;;;;4917724;29;20215;-69
2023/04/02 00:11:20;;;;;;;9.87;8.10;;;;;;;;;;4924281;29;20219;-69
2023/04/02 00:13:45;;;;;;;11.03;8.43;;;;;;;;;;4942845;29;20221;-70
2023/04/02 00:16:12;;;;;;;9.57;8.23;;;;;;;;;;4944210;28;20685;-69
2023/04/02 00:18:39;;;;;;;10.73;8.30;;;;;;;;;;4944070;29;20222;-69
2023/04/02 00:21:18;;;;;;;11.50;7.43;;;;;;;;;;4942974;28;20568;-69
2023/04/02 00:23:43;;;;;;;10.30;7.23;;;;;;;;;;4939782;29;20214;-69
2023/04/02 00:26:28;;;;;;;9.37;7.17;;;;;;;;;;4921240;29;20231;-69
2023/04/02 00:28:53;;;;;;;8.53;7.03;;;;;;;;;;4936607;28;20655;-70
2023/04/02 00:31:18;;;;;;;8.53;6.50;;;;;;;;;;4923979;28;20252;-69
2023/04/02 00:33:44;;;;;;;8.67;6.30;;;;;;;;;;4942402;28;20220;-69
2023/04/02 00:36:09;;;;;;;9.63;6.40;;;;;;;;;;4926642;28;20214;-69
2023/04/02 00:38:34;;;;;;;7.73;6.30;;;;;;;;;;4963433;28;20897;-69
2023/04/02 00:41:01;;;;;;;7.70;6.03;;;;;;;;;;4963881;28;20213;-69
2023/04/02 00:43:27;;;;;;;8.40;6.57;;;;;;;;;;4941593;28;20210;-69
2023/04/02 00:45:53;;;;;;;8.90;6.80;;;;;;;;;;4946006;28;20236;-69
2023/04/02 00:48:23;;;;;;;9.67;7.13;;;;;;;;;;4945608;28;20532;-69
2023/04/02 00:50:48;;;;;;;9.80;7.40;;;;;;;;;;4928222;28;20218;-69
2023/04/02 00:53:20;;;;;;;10.70;7.70;;;;;;;;;;4919379;28;20227;-69
2023/04/02 00:55:45;;;;;;;10.93;8.17;;;;;;;;;;4941715;28;20217;-69
2023/04/02 00:58:25;;;;;;;9.87;8.10;;;;;;;;;;4945169;28;20750;-69
2023/04/02 01:00:50;;;;;;;9.93;8.00;;;;;;;;;;4944375;28;20716;-70
2023/04/02 01:03:15;;;;;;;10.77;8.03;;;;;;;;;;4944059;28;20210;-69
2023/04/02 01:05:41;;;;;;;12.07;8.17;;;;;;;;;;4943983;28;20321;-69
2023/04/02 01:08:11;;;;;;;10.83;8.23;;;;;;;;;;4926763;28;20226;-68
2023/04/02 01:10:37;;;;;;;10.97;7.80;;;;;;;;;;4947904;28;20553;-69
2023/04/02 01:13:05;;;;;;;9.77;7.87;;;;;;;;;;4958538;28;20245;-69
2023/04/02 01:15:33;;;;;;;10.50;8.20;;;;;;;;;;4940389;28;20242;-70
2023/04/02 01:18:08;;;;;;;10.97;7.63;;;;;;;;;;4961265;28;20245;-69
2023/04/02 01:20:40;;;;;;;11.40;7.93;;;;;;;;;;4949003;28;20220;-70
2023/04/02 01:23:17;;;;;;;9.70;7.30;;;;;;;;;;4931924;28;20682;-69
2023/04/02 01:25:48;;;;;;;10.07;7.83;;;;;;;;;;4948892;28;20780;-69
2023/04/02 01:28:18;;;;;;;9.63;7.30;;;;;;;;;;4966823;28;20214;-69
2023/04/02 01:30:44;;;;;;;11.20;7.60;;;;;;;;;;4938841;28;20219;-69
2023/04/02 01:33:09;;;;;;;11.57;7.53;;;;;;;;;;4927657;28;20240;-69
2023/04/02 01:35:35;;;;;;;9.63;7.80;;;;;;;;;;4922921;28;20219;-69
2023/04/02 01:38:17;;;;;;;11.53;8.37;;;;;;;;;;4922886;28;20227;-69
2023/04/02 01:40:45;;;;;;;11.17;8.10;;;;;;;;;;4959967;28;20308;-69
2023/04/02 01:43:14;;;;;;;11.03;8.57;;;;;;;;;;4948921;28;20887;-69
2023/04/02 01:45:40;;;;;;;12.70;8.30;;;;;;;;;;4966597;28;20757;-69
2023/04/02 01:48:07;;;;;;;12.23;8.67;;;;;;;;;;4935496;28;20224;-68
2023/04/02 01:50:35;;;;;;;12.47;8.57;;;;;;;;;;4930738;28;20272;-69
2023/04/02 01:53:02;;;;;;;12.40;8.30;;;;;;;;;;4966487;28;20214;-69
2023/04/02 01:55:30;;;;;;;9.67;7.80;;;;;;;;;;4952441;28;20622;-69
2023/04/02 01:57:55;;;;;;;12.03;8.33;;;;;;;;;;4961159;28;20701;-69
2023/04/02 02:00:21;;;;;;;11.53;8.30;;;;;;;;;;4956610;29;20246;-69
2023/04/02 02:02:47;;;;;;;12.63;9.33;;;;;;;;;;4939097;29;20218;-69
2023/04/02 02:05:13;;;;;;;13.27;9.67;;;;;;;;;;4939381;29;20237;-69
2023/04/02 02:07:39;;;;;;;13.50;9.97;;;;;;;;;;4939162;29;20206;-70
2023/04/02 02:10:05;;;;;;;13.13;9.63;;;;;;;;;;4939590;29;20222;-69
2023/04/02 02:12:30;;;;;;;13.10;9.30;;;;;;;;;;4956676;29;20350;-69
2023/04/02 02:14:55;;;;;;;13.03;9.73;;;;;;;;;;4956063;29;20210;-69
2023/04/02 02:17:25;;;;;;;14.37;9.30;;;;;;;;;;4956093;29;20213;-69
2023/04/02 02:19:51;;;;;;;11.00;9.80;;;;;;;;;;4939304;29;20714;-69
2023/04/02 02:22:18;;;;;;;12.03;9.63;;;;;;;;;;4955362;29;20562;-68
2023/04/02 02:24:43;;;;;;;12.97;9.37;;;;;;;;;;4939428;29;20228;-69
2023/04/02 02:27:26;;;;;;;12.53;10.27;;;;;;;;;;4956170;29;20222;-69
2023/04/02 02:29:53;;;;;;;16.43;9.97;;;;;;;;;;4938413;29;20214;-69
2023/04/02 02:32:19;;;;;;;12.47;10.47;;;;;;;;;;4938536;29;20710;-69
2023/04/02 02:34:45;;;;;;;12.77;10.63;;;;;;;;;;4939269;29;20265;-69
2023/04/02 02:37:11;;;;;;;15.00;10.73;;;;;;;;;;4937912;29;20293;-69
2023/04/02 02:39:38;;;;;;;12.90;10.10;;;;;;;;;;4939160;29;20222;-69
2023/04/02 02:42:05;;;;;;;12.93;9.20;;;;;;;;;;4938624;29;20210;-69
2023/04/02 02:44:32;;;;;;;10.87;8.70;;;;;;;;;;4955417;29;20265;-69
2023/04/02 02:46:57;;;;;;;10.83;7.27;;;;;;;;;;4942860;28;20249;-69
2023/04/02 02:49:25;;;;;;;11.17;8.03;;;;;;;;;;4966525;28;20260;-69
2023/04/02 02:51:54;;;;;;;11.17;8.30;;;;;;;;;;4956423;28;20219;-69
2023/04/02 02:54:19;;;;;;;11.43;9.10;;;;;;;;;;4938479;28;20686;-69
2023/04/02 02:56:45;;;;;;;11.73;8.67;;;;;;;;;;4955386;28;20221;-69
2023/04/02 02:59:11;;;;;;;8.70;5.60;;;;;;;;;;4955448;29;20206;-69
2023/04/02 03:01:36;;;;;;;7.43;5.27;;;;;;;;;;4938759;29;20226;-69
2023/04/02 03:04:01;;;;;;;7.67;5.00;;;;;;;;;;4957909;28;20218;-69
2023/04/02 03:06:27;;;;;;;7.17;4.90;;;;;;;;;;4943462;28;20592;-69
2023/04/02 03:09:00;;;;;;;8.47;5.60;;;;;;;;;;4938671;29;20226;-69
2023/04/02 03:11:28;;;;;;;8.27;5.30;;;;;;;;;;4937613;29;20306;-69
2023/04/02 03:13:55;;;;;;;8.93;5.73;;;;;;;;;;4938447;29;20305;-69
2023/04/02 03:16:30;;;;;;;8.03;5.80;;;;;;;;;;4938225;29;20233;-69
2023/04/02 03:19:03;;;;;;;8.93;6.10;;;;;;;;;;4954468;29;20704;-69
2023/04/02 03:21:30;;;;;;;10.47;5.90;;;;;;;;;;4955294;29;20218;-69
2023/04/02 03:23:58;;;;;;;9.13;5.80;;;;;;;;;;4938241;29;20297;-70
2023/04/02 03:26:24;;;;;;;10.10;6.53;;;;;;;;;;4954307;29;20269;-69
2023/04/02 03:28:51;;;;;;;9.10;6.17;;;;;;;;;;4955408;29;20218;-69
2023/04/02 03:31:24;;;;;;;10.10;6.40;;;;;;;;;;4933456;29;20243;-69
2023/04/02 03:33:51;;;;;;;10.90;6.60;;;;;;;;;;4935375;29;20282;-69
2023/04/02 03:36:23;;;;;;;9.40;6.77;;;;;;;;;;4934558;29;20558;-69
2023/04/02 03:38:50;;;;;;;9.03;6.67;;;;;;;;;;4936217;29;20218;-70
2023/04/02 03:41:31;;;;;;;9.63;6.70;;;;;;;;;;4934103;29;20219;-69
2023/04/02 03:43:57;;;;;;;15.50;8.30;;;;;;;;;;4934758;29;20222;-69
2023/04/02 03:46:24;;;;;;;13.00;8.57;;;;;;;;;;4933556;29;20238;-69
2023/04/02 03:48:50;;;;;;;13.63;10.13;;;;;;;;;;4949588;28;20629;-69
2023/04/02 03:51:18;;;;;;;16.10;9.60;;;;;;;;;;4935459;29;20243;-69
2023/04/02 03:53:43;;;;;;;13.93;10.03;;;;;;;;;;4934203;29;20216;-69
2023/04/02 03:56:10;;;;;;;13.00;10.07;;;;;;;;;;4930201;29;20230;-69
2023/04/02 03:58:43;;;;;;;15.17;10.50;;;;;;;;;;4920479;29;20646;-68
2023/04/02 04:01:12;;;;;;;12.90;8.83;;;;;;;;;;4932204;28;20218;-67
2023/04/02 04:03:39;;;;;;;13.00;8.70;;;;;;;;;;4940229;29;20249;-68
2023/04/02 04:06:07;;;;;;;11.50;8.47;;;;;;;;;;4940923;29;20267;-67
2023/04/02 04:08:41;;;;;;;11.93;7.97;;;;;;;;;;4926318;29;20219;-68
2023/04/02 04:11:07;;;;;;;12.10;8.33;;;;;;;;;;4926014;29;20257;-68
2023/04/02 04:13:35;;;;;;;11.80;8.60;;;;;;;;;;4925179;29;20228;-68
2023/04/02 04:16:03;;;;;;;12.20;8.40;;;;;;;;;;4941750;28;20273;-66
2023/04/02 04:18:47;;;;;;;13.87;8.37;;;;;;;;;;4941969;28;20317;-68
2023/04/02 04:21:15;;;;;;;12.37;7.80;;;;;;;;;;4916856;29;20647;-68
2023/04/02 04:23:40;;;;;;;11.93;7.37;;;;;;;;;;4917094;29;20208;-68
2023/04/02 04:26:11;;;;;;;12.83;7.63;;;;;;;;;;4919924;29;20242;-68
2023/04/02 04:28:41;;;;;;;13.33;7.30;;;;;;;;;;4931669;29;20622;-68
2023/04/02 04:31:16;;;;;;;9.67;6.30;;;;;;;;;;4933689;28;20769;-67
2023/04/02 04:33:42;;;;;;;10.83;6.50;;;;;;;;;;4947468;28;20271;-68
2023/04/02 04:36:27;;;;;;;9.87;5.93;;;;;;;;;;4944880;28;20689;-67
2023/04/02 04:38:54;;;;;;;12.03;6.00;;;;;;;;;;4947801;28;20269;-68
2023/04/02 04:41:21;;;;;;;9.03;5.30;;;;;;;;;;4959451;28;20222;-67
2023/04/02 04:43:51;;;;;;;11.40;5.60;;;;;;;;;;4919119;28;20218;-67
2023/04/02 04:46:17;;;;;;;9.90;5.30;;;;;;;;;;4937503;28;20251;-68
2023/04/02 04:48:53;;;;;;;10.43;5.00;;;;;;;;;;4928689;28;20569;-68
2023/04/02 04:51:20;;;;;;;8.20;4.03;;;;;;;;;;4944906;28;20220;-67
2023/04/02 04:53:46;;;;;;;10.80;4.93;;;;;;;;;;4946569;28;20230;-68
2023/04/02 04:56:11;;;;;;;9.97;4.70;;;;;;;;;;4935126;28;20379;-67
2023/04/02 04:58:38;;;;;;;8.20;4.70;;;;;;;;;;4929194;28;20305;-67
2023/04/02 05:01:11;;;;;;;8.57;4.30;;;;;;;;;;4962601;28;20229;-68
2023/04/02 05:03:40;;;;;;;8.10;3.63;;;;;;;;;;4950322;28;20703;-68
2023/04/02 05:06:15;;;;;;;7.73;3.97;;;;;;;;;;4952456;28;20581;-67
2023/04/02 05:08:42;;;;;;;7.43;4.00;;;;;;;;;;4920669;28;20213;-68
2023/04/02 05:11:22;;;;;;;6.47;3.80;;;;;;;;;;4924697;28;20264;-68
2023/04/02 05:13:49;;;;;;;6.50;3.63;;;;;;;;;;4930534;28;20226;-68
2023/04/02 05:16:16;;;;;;;6.83;3.67;;;;;;;;;;4926633;28;20222;-68
2023/04/02 05:18:43;;;;;;;9.73;4.20;;;;;;;;;;4945399;28;20286;-68
2023/04/02 05:21:20;;;;;;;9.17;3.93;;;;;;;;;;4938756;28;20312;-67
2023/04/02 05:23:46;;;;;;;9.40;3.97;;;;;;;;;;4933282;28;20229;-68
2023/04/02 05:26:17;;;;;;;7.03;3.60;;;;;;;;;;4960307;28;20300;-67
2023/04/02 05:28:52;;;;;;;6.83;3.50;;;;;;;;;;4938497;28;20213;-67
2023/04/02 05:31:18;;;;;;;9.13;3.57;;;;;;;;;;4921991;28;20846;-71
2023/04/02 05:33:44;;;;;;;9.30;3.63;;;;;;;;;;4922440;28;20219;-64
2023/04/02 05:36:10;;;;;;;9.57;3.53;;;;;;;;;;4961925;28;20480;-65
2023/04/02 05:38:36;;;;;;;6.20;3.00;;;;;;;;;;4944401;28;20237;-65
2023/04/02 05:41:04;;;;;;;6.93;3.17;;;;;;;;;;4960856;28;21033;-65
2023/04/02 05:43:30;;;;;;;7.37;2.80;;;;;;;;;;4927976;28;20219;-65
2023/04/02 05:45:56;;;;;;;7.57;2.60;;;;;;;;;;4961914;28;20599;-65
2023/04/02 05:48:26;;;;;;;6.40;2.40;;;;;;;;;;4930207;28;20218;-65
2023/04/02 05:50:53;;;;;;;7.40;2.40;;;;;;;;;;4938228;28;20225;-65
2023/04/02 05:53:26;;;;;;;4.53;2.27;;;;;;;;;;4944257;28;20228;-65
2023/04/02 05:55:52;;;;;;;7.47;2.73;;;;;;;;;;4957870;28;20222;-65
2023/04/02 05:58:37;;;;;;;6.13;2.53;;;;;;;;;;4931451;28;20894;-64
2023/04/02 06:01:06;;;;;;;6.13;2.33;;;;;;;;;;4946086;28;20224;-64
2023/04/02 06:03:51;;;;;;;5.73;2.27;;;;;;;;;;4958237;28;20270;-64
2023/04/02 06:06:21;;;;;;;6.67;2.57;;;;;;;;;;4959172;28;20281;-65
2023/04/02 06:08:50;;;;;;;5.70;2.43;;;;;;;;;;4927637;28;20226;-64
2023/04/02 06:11:17;;;;;;;8.33;2.90;;;;;;;;;;4945324;28;20237;-64
2023/04/02 06:13:42;;;;;;;8.73;2.90;;;;;;;;;;4939541;28;20854;-65
2023/04/02 06:16:09;;;;;;;5.57;2.70;;;;;;;;;;4956872;28;20229;-65
2023/04/02 06:18:34;;;;;;;7.03;2.27;;;;;;;;;;4940338;28;20226;-65
2023/04/02 06:21:02;;;;;;;7.07;2.40;;;;;;;;;;4933313;28;20430;-65
2023/04/02 06:23:29;;;;;;;5.87;2.33;;;;;;;;;;4963559;28;20213;-65
2023/04/02 06:25:56;;;;;;;5.97;2.40;;;;;;;;;;4964273;28;20810;-65
2023/04/02 06:28:26;;;;;;;5.23;2.40;;;;;;;;;;4953070;28;20214;-66
2023/04/02 06:30:53;;;;;;;7.37;2.30;;;;;;;;;;4936894;29;20553;-65
2023/04/02 06:33:18;;;;;;;6.17;2.37;;;;;;;;;;4941469;28;20210;-65
2023/04/02 06:35:46;;;;;;;8.23;2.60;;;;;;;;;;4963024;28;20261;-65
2023/04/02 06:38:14;;;;;;;6.60;2.30;;;;;;;;;;4963624;28;20294;-65
2023/04/02 06:40:44;;;;;;;5.20;2.27;;;;;;;;;;4947403;28;20205;-65
2023/04/02 06:43:17;;;;;;;5.53;2.20;;;;;;;;;;4945419;28;20202;-65
2023/04/02 06:45:43;;;;;;;6.18;2.50;;;;;;;;;;4945085;28;20437;-64
2023/04/02 06:48:12;;;;;;;6.27;2.20;;;;;;;;;;4963692;28;20210;-63
2023/04/02 06:50:46;;;;;;;6.03;2.20;;;;;;;;;;4948564;28;20207;-63
2023/04/02 06:53:16;;;;;;;6.80;2.40;;;;;;;;;;4952132;28;20213;-68
2023/04/02 06:55:46;;;;;;;7.50;2.53;;;;;;;;;;4958190;28;20244;-66
2023/04/02 06:58:11;;;;;;;7.93;2.17;;;;;;;;;;4974426;28;20221;-68
2023/04/02 07:00:37;;;;;;;7.87;2.50;;;;;;;;;;4975508;28;20269;-63
2023/04/02 07:03:04;;;;;;;7.27;2.60;;;;;;;;;;4957273;28;20221;-64
2023/04/02 07:05:30;;;;;;;6.80;2.40;;;;;;;;;;4974879;28;20230;-64
2023/04/02 07:07:55;;;;;;;8.90;2.63;;;;;;;;;;4974235;28;20263;-64
2023/04/02 07:10:21;;;;;;;5.53;2.17;;;;;;;;;;4974002;28;20210;-65
2023/04/02 07:12:46;;;;;;;7.93;2.70;;;;;;;;;;4975110;28;20843;-64
2023/04/02 07:15:15;;;;;;;8.03;2.60;;;;;;;;;;4974685;28;20244;-64
2023/04/02 07:17:41;;;;;;;6.63;2.30;;;;;;;;;;4965777;28;20580;-65
2023/04/02 07:20:08;;;;;;;6.57;2.60;;;;;;;;;;4964551;28;20221;-65
2023/04/02 07:22:33;;;;;;;7.93;3.03;;;;;;;;;;4948300;28;20231;-65
2023/04/02 07:24:59;;;;;;;7.50;2.87;;;;;;;;;;4962531;28;20253;-65
2023/04/02 07:27:25;;;;;;;6.67;2.70;;;;;;;;;;4964711;28;20245;-65
2023/04/02 07:29:50;;;;;;;8.07;3.40;;;;;;;;;;4964820;28;20214;-65
2023/04/02 07:32:16;;;;;;;10.73;3.03;;;;;;;;;;4964269;28;20238;-65
2023/04/02 07:34:41;;;;;;;8.70;2.73;;;;;;;;;;4954381;28;20693;-63
2023/04/02 07:37:07;;;;;;;7.07;2.60;;;;;;;;;;4961178;28;20218;-68
2023/04/02 07:39:32;;;;;;;7.07;2.60;;;;;;;;;;4959654;28;20229;-66
2023/04/02 07:41:58;;;;;;;4.90;2.20;;;;;;;;;;4955195;29;20269;-66
2023/04/02 07:44:23;;;;;;;5.70;2.80;;;;;;;;;;4956238;28;20306;-65
2023/04/02 07:46:49;;;;;;;6.97;2.87;;;;;;;;;;4954344;29;20321;-63
2023/04/02 07:49:14;;;;;;;6.93;2.67;;;;;;;;;;4962975;28;20570;-66
2023/04/02 07:51:40;;;;;;;7.03;2.87;;;;;;;;;;4974275;28;20288;-66
2023/04/02 07:54:08;;;;;;;5.57;2.87;;;;;;;;;;4973137;28;20804;-65
2023/04/02 07:56:34;;;;;;;6.30;2.97;;;;;;;;;;4974463;28;20293;-64
2023/04/02 07:58:59;;;;;;;6.83;3.17;;;;;;;;;;4974300;28;20292;-65
2023/04/02 08:01:25;;;;;;;5.73;2.50;;;;;;;;;;4972877;28;20221;-62
2023/04/02 08:03:51;;;;;;;6.60;2.30;;;;;;;;;;4970879;28;20206;-63
2023/04/02 08:06:16;;;;;;;6.27;2.50;;;;;;;;;;4953479;29;20241;-65
2023/04/02 08:08:41;;;;;;;7.23;2.50;;;;;;;;;;4954868;29;20215;-65
2023/04/02 08:11:07;;;;;;;6.83;2.70;;;;;;;;;;4953951;29;20219;-65
2023/04/02 08:13:32;;;;;;;8.27;2.23;;;;;;;;;;4954156;29;20322;-63
2023/04/02 08:15:58;;;;;;;5.17;2.37;;;;;;;;;;4954560;29;20222;-65
2023/04/02 08:18:23;;;;;;;7.00;2.37;;;;;;;;;;4953916;28;20222;-65
2023/04/02 08:20:48;;;;;;;8.57;3.37;;;;;;;;;;4936505;29;20580;-66
2023/04/02 08:23:15;;;;;;;6.13;2.70;;;;;;;;;;4954149;29;20293;-62
2023/04/02 08:25:41;;;;;;;10.63;3.10;;;;;;;;;;4954423;29;20230;-67
2023/04/02 08:28:06;;;;;;;7.57;2.83;;;;;;;;;;4953411;29;20278;-62
2023/04/02 08:30:31;;;;;;;10.07;4.80;;;;;;;;;;4954544;29;20273;-62
2023/04/02 08:32:57;;;;;;;10.37;5.20;;;;;;;;;;4954367;29;20231;-62
2023/04/02 08:35:22;;;;;;;8.00;3.27;;;;;;;;;;4953185;29;20222;-62
2023/04/02 08:37:47;;;;;;;5.07;3.10;;;;;;;;;;4954382;29;20214;-63
2023/04/02 08:40:31;;;;;;;6.80;3.13;;;;;;;;;;4953798;29;20225;-64
2023/04/02 08:42:58;;;;;;;5.17;2.97;;;;;;;;;;4954590;28;20214;-63
2023/04/02 08:45:23;;;;;;;6.27;3.60;;;;;;;;;;4953969;29;20273;-62
2023/04/02 08:47:49;;;;;;;7.10;3.40;;;;;;;;;;4965153;28;20222;-63
2023/04/02 08:50:21;;;;;;;8.80;3.47;;;;;;;;;;4955799;28;20248;-63
2023/04/02 08:52:46;;;;;;;6.60;3.47;;;;;;;;;;4953436;29;20299;-62
2023/04/02 08:55:16;;;;;;;8.27;3.97;;;;;;;;;;4953129;29;20749;-62
2023/04/02 08:57:45;;;;;;;7.40;4.10;;;;;;;;;;4953479;29;20210;-63
2023/04/02 09:00:25;;;;;;;7.87;3.80;;;;;;;;;;4936641;29;20215;-62
2023/04/02 09:02:54;;;;;;;6.03;3.37;;;;;;;;;;4953380;29;20234;-62
2023/04/02 09:05:22;;;;;;;8.47;3.87;;;;;;;;;;4936901;29;20702;-63
2023/04/02 09:07:47;;;;;;;8.03;3.50;;;;;;;;;;4954163;29;20224;-63
2023/04/02 09:10:13;;;;;;;7.97;3.73;;;;;;;;;;4935702;29;20640;-62
2023/04/02 09:12:38;;;;;;;7.07;3.23;;;;;;;;;;4953852;29;20219;-62
2023/04/02 09:15:10;;;;;;;8.83;3.10;;;;;;;;;;4936342;29;20215;-62
2023/04/02 09:17:36;;;;;;;8.20;3.07;;;;;;;;;;4953143;29;20214;-62
2023/04/02 09:20:01;;;;;;;6.03;2.40;;;;;;;;;;4953910;29;20222;-62
2023/04/02 09:22:27;;;;;;;9.57;3.27;;;;;;;;;;4953702;29;20218;-62
2023/04/02 09:24:54;;;;;;;6.10;2.63;;;;;;;;;;4936315;29;20223;-62
2023/04/02 09:27:20;;;;;;;9.10;2.57;;;;;;;;;;4953317;29;20261;-62
2023/04/02 09:29:47;;;;;;;6.07;3.00;;;;;;;;;;4955239;28;20241;-62
2023/04/02 09:32:16;;;;;;;7.60;3.13;;;;;;;;;;4964443;28;20233;-62
2023/04/02 09:34:42;;;;;;;10.47;3.30;;;;;;;;;;4957644;28;20209;-62
2023/04/02 09:37:08;;;;;;;9.53;3.20;;;;;;;;;;4962419;28;20214;-63
2023/04/02 09:39:34;;;;;;;7.67;3.00;;;;;;;;;;4963436;28;20214;-62
2023/04/02 09:42:04;;;;;;;7.57;3.07;;;;;;;;;;4969305;28;20251;-62
2023/04/02 09:44:30;;;;;;;7.10;3.30;;;;;;;;;;4952053;28;20689;-63
2023/04/02 09:46:58;;;;;;;11.97;4.93;;;;;;;;;;4951494;28;20235;-62
2023/04/02 09:49:25;;;;;;;8.03;3.77;;;;;;;;;;4935853;28;21109;-62
2023/04/02 09:52:09;;;;;;;3.70;2.30;;;;;;;;;;4952349;28;20599;-63
2023/04/02 09:54:40;;;;;;;5.43;2.10;;;;;;;;;;4969439;28;20267;-63
2023/04/02 09:57:05;;;;;;;5.83;2.13;;;;;;;;;;4944913;28;20543;-62
2023/04/02 09:59:31;;;;;;;4.47;1.80;;;;;;;;;;4961803;28;20773;-62
2023/04/02 10:01:57;;;;;;;4.77;1.90;;;;;;;;;;4946560;28;20700;-63
2023/04/02 10:04:31;;;;;;;3.47;1.67;;;;;;;;;;4969164;28;20213;-62
2023/04/02 10:06:57;;;;;;;5.87;1.70;;;;;;;;;;4968922;28;20224;-62
2023/04/02 10:09:27;;;;;;;5.53;1.63;;;;;;;;;;4969591;28;20346;-62
2023/04/02 10:11:52;;;;;;;5.07;1.90;;;;;;;;;;4952538;28;20239;-62
2023/04/02 10:14:19;;;;;;;4.73;1.80;;;;;;;;;;4968876;28;20300;-62
2023/04/02 10:16:47;;;;;;;5.47;2.00;;;;;;;;;;4952550;28;20681;-62
2023/04/02 10:19:16;;;;;;;4.70;1.93;;;;;;;;;;4945324;28;20221;-63
2023/04/02 10:21:41;;;;;;;7.07;2.07;;;;;;;;;;4961452;28;20753;-63
2023/04/02 10:24:13;;;;;;;6.50;2.27;;;;;;;;;;4945069;28;20221;-63
2023/04/02 10:26:47;;;;;;;6.40;2.30;;;;;;;;;;4950531;28;20680;-62
2023/04/02 10:29:15;;;;;;;6.17;2.00;;;;;;;;;;4951430;28;20257;-63
2023/04/02 10:31:41;;;;;;;5.23;2.10;;;;;;;;;;4935785;29;20690;-63
2023/04/02 10:34:10;;;;;;;5.37;2.10;;;;;;;;;;4953597;28;20759;-62
2023/04/02 10:36:36;;;;;;;6.13;2.20;;;;;;;;;;4939690;29;20269;-63
2023/04/02 10:39:03;;;;;;;6.57;2.13;;;;;;;;;;4956181;29;20703;-62
2023/04/02 10:41:29;;;;;;;7.83;2.53;;;;;;;;;;4947517;28;20372;-62
2023/04/02 10:43:54;;;;;;;4.13;1.80;;;;;;;;;;4963144;28;20713;-63
2023/04/02 10:46:21;;;;;;;5.87;1.70;;;;;;;;;;4955933;29;20234;-63
2023/04/02 10:48:51;;;;;;;4.80;1.80;;;;;;;;;;4960138;28;20217;-63
2023/04/02 10:51:24;;;;;;;6.93;1.83;;;;;;;;;;4957865;28;20701;-63
2023/04/02 10:53:58;;;;;;;6.77;2.10;;;;;;;;;;4958244;28;20689;-63
2023/04/02 10:56:23;;;;;;;7.80;2.53;;;;;;;;;;4957046;28;20228;-64
2023/04/02 10:59:12;;;;;;;7.23;1.73;;;;;;;;;;4975447;28;20209;-64
2023/04/02 11:01:37;;;;;;;6.57;2.00;;;;;;;;;;4957868;28;20217;-64
2023/04/02 11:04:06;;;;;;;8.60;1.80;;;;;;;;;;4940824;28;20218;-64
2023/04/02 11:06:35;;;;;;;5.13;2.10;;;;;;;;;;4975309;28;20234;-64
2023/04/02 11:09:03;;;;;;;4.60;1.70;;;;;;;;;;4939902;29;20222;-63
2023/04/02 11:11:32;;;;;;;6.40;1.80;;;;;;;;;;4938760;29;20222;-64
2023/04/02 11:13:58;;;;;;;5.43;2.10;;;;;;;;;;4955537;29;20630;-64
2023/04/02 11:16:23;;;;;;;6.90;1.80;;;;;;;;;;4954780;29;20675;-64
2023/04/02 11:19:07;;;;;;;5.27;1.80;;;;;;;;;;4938802;29;20269;-64
2023/04/02 11:21:39;;;;;;;11.70;5.60;;;;;;;;;;4955335;29;20241;-64
2023/04/02 11:24:05;;;;;;;6.53;2.10;;;;;;;;;;4954467;29;20294;-63
2023/04/02 11:26:30;;;;;;;6.00;1.80;;;;;;;;;;4938218;29;20282;-64
2023/04/02 11:29:14;;;;;;;5.23;2.00;;;;;;;;;;4955333;29;20590;-64
2023/04/02 11:31:40;;;;;;;7.10;2.20;;;;;;;;;;4971800;28;20221;-64
2023/04/02 11:34:05;;;;;;;9.13;2.40;;;;;;;;;;4938534;28;20237;-65
2023/04/02 11:36:49;;;;;;;6.50;1.90;;;;;;;;;;4960526;28;20744;-64
2023/04/02 11:39:34;;;;;;;7.13;1.83;;;;;;;;;;4956058;28;20579;-64
2023/04/02 11:42:01;;;;;;;4.87;1.90;;;;;;;;;;4954846;29;20218;-64
2023/04/02 11:44:26;;;;;;;5.20;1.80;;;;;;;;;;4958184;28;20218;-64
2023/04/02 11:46:51;;;;;;;5.35;2.28;;;;;;;;;;4958620;28;20236;-64
2023/04/02 11:49:34;;;;;;;5.77;2.00;;;;;;;;;;4965586;28;20706;-64
2023/04/02 11:52:00;;;;;;;4.88;2.33;;;;;;;;;;4953690;28;20215;-64
2023/04/02 11:54:27;;;;;;;4.83;1.70;;;;;;;;;;4954678;29;20229;-63
2023/04/02 11:56:55;;;;;;;6.10;1.85;;;;;;;;;;4948834;28;20226;-64
2023/04/02 11:59:35;;;;;;;6.27;1.80;;;;;;;;;;4935422;28;20218;-63
2023/04/02 12:02:03;;;;;;;7.27;2.10;;;;;;;;;;4967438;28;20226;-62
2023/04/02 12:04:29;;;;;;;6.30;1.98;;;;;;;;;;4953472;28;20234;-62
2023/04/02 12:06:59;;;;;;;5.43;1.95;;;;;;;;;;4940600;28;20218;-64
2023/04/02 12:09:35;;;;;;;6.67;2.17;;;;;;;;;;4924625;28;20219;-63
2023/04/02 12:12:01;;;;;;;3.08;1.73;;;;;;;;;;4944600;28;20214;-63
2023/04/02 12:14:29;;;;;;;5.87;2.17;;;;;;;;;;4930899;28;20700;-63
2023/04/02 12:16:54;;;;;;;6.10;2.30;;;;;;;;;;4949010;28;20218;-63
2023/04/02 12:19:20;;;;;;;6.03;2.27;;;;;;;;;;4965307;28;20572;-63
2023/04/02 12:21:46;;;;;;;4.27;1.80;;;;;;;;;;4931176;28;20230;-64
2023/04/02 12:24:16;;;;;;;5.22;1.88;;;;;;;;;;4948892;28;20261;-64
2023/04/02 12:26:45;;;;;;;5.27;2.00;;;;;;;;;;4947189;28;20293;-64
2023/04/02 12:29:28;;;;;;;7.43;1.90;;;;;;;;;;4954609;28;20211;-64
2023/04/02 12:31:54;;;;;;;4.23;1.83;;;;;;;;;;4939602;29;20562;-64
2023/04/02 12:34:20;;;;;;;4.93;1.70;;;;;;;;;;4941458;28;20752;-63
2023/04/02 12:36:51;;;;;;;4.07;1.70;;;;;;;;;;4941988;28;21102;-64
2023/04/02 12:39:17;;;;;;;6.18;1.88;;;;;;;;;;4933851;29;20230;-63
2023/04/02 12:41:42;;;;;;;5.07;1.70;;;;;;;;;;4922180;28;20710;-63
2023/04/02 12:44:14;;;;;;;5.07;1.60;;;;;;;;;;4936281;28;20215;-62
2023/04/02 12:46:39;;;;;;;5.13;1.55;;;;;;;;;;4939982;28;20780;-63
2023/04/02 12:49:05;;;;;;;6.40;1.95;;;;;;;;;;4944764;28;20213;-63
2023/04/02 12:51:31;;;;;;;4.70;1.50;;;;;;;;;;4938600;29;20265;-63
2023/04/02 12:53:56;;;;;;;6.07;1.80;;;;;;;;;;4940377;28;20283;-63
2023/04/02 12:56:22;;;;;;;4.67;1.70;;;;;;;;;;4940679;28;20229;-63
2023/04/02 12:58:52;;;;;;;4.37;1.60;;;;;;;;;;4946744;29;20301;-63
2023/04/02 13:01:18;;;;;;;3.33;1.60;;;;;;;;;;4937058;28;20231;-63
2023/04/02 13:03:57;;;;;;;6.82;2.20;;;;;;;;;;4927925;29;20251;-63
2023/04/02 13:06:23;;;;;;;6.70;1.70;;;;;;;;;;4933090;29;20234;-63
2023/04/02 13:08:48;;;;;;;8.50;1.70;;;;;;;;;;4933044;29;20237;-63
2023/04/02 13:11:14;;;;;;;4.73;1.63;;;;;;;;;;4932374;29;20322;-63
2023/04/02 13:13:39;;;;;;;6.03;1.88;;;;;;;;;;4940071;29;20758;-63
2023/04/02 13:16:09;;;;;;;3.42;1.42;;;;;;;;;;4921606;28;21231;-63
2023/04/02 13:18:35;;;;;;;5.15;1.70;;;;;;;;;;4934360;28;20222;-63
2023/04/02 13:21:05;;;;;;;6.33;1.80;;;;;;;;;;4931640;28;20222;-63
2023/04/02 13:23:30;;;;;;;2.88;1.52;;;;;;;;;;4947445;28;20288;-63
2023/04/02 13:25:56;;;;;;;5.53;1.85;;;;;;;;;;4950883;28;20724;-63
2023/04/02 13:28:21;;;;;;;4.53;1.40;;;;;;;;;;4951427;28;20669;-63
2023/04/02 13:30:46;;;;;;;2.85;1.50;;;;;;;;;;4939816;28;20569;-63
2023/04/02 13:33:12;;;;;;;5.93;1.58;;;;;;;;;;4951017;28;20329;-63
2023/04/02 13:35:37;;;;;;;4.55;1.60;;;;;;;;;;4946974;28;20218;-64
2023/04/02 13:38:04;;;;;;;7.95;1.83;;;;;;;;;;4942943;28;20214;-63
2023/04/02 13:40:30;;;;;;;4.47;1.60;;;;;;;;;;4963159;28;20221;-64
2023/04/02 13:42:55;;;;;;;8.20;1.55;;;;;;;;;;4964486;28;20226;-64
2023/04/02 13:45:24;;;;;;;3.90;1.50;;;;;;;;;;4949238;28;20241;-65
2023/04/02 13:47:50;;;;;;;7.97;1.85;;;;;;;;;;4959580;28;20579;-65
2023/04/02 13:50:19;;;;;;;4.78;1.70;;;;;;;;;;4951567;28;20685;-63
2023/04/02 13:52:44;;;;;;;3.97;1.48;;;;;;;;;;4950734;28;20214;-64
2023/04/02 13:55:10;;;;;;;7.00;1.67;;;;;;;;;;4951117;28;20225;-64
2023/04/02 13:57:35;;;;;;;7.00;1.50;;;;;;;;;;4932341;28;20426;-64
2023/04/02 14:00:01;;;;;;;3.47;1.40;;;;;;;;;;4942215;28;20246;-65
2023/04/02 14:02:26;;;;;;;6.03;1.60;;;;;;;;;;4943697;28;20215;-66
2023/04/02 14:04:52;;;;;;;4.43;1.55;;;;;;;;;;4945464;28;20299;-65
2023/04/02 14:07:20;;;;;;;6.10;1.70;;;;;;;;;;4934022;28;20632;-64
2023/04/02 14:09:53;;;;;;;4.60;1.40;;;;;;;;;;4934175;28;20210;-64
2023/04/02 14:12:22;;;;;;;6.10;1.47;;;;;;;;;;4940369;28;20260;-66
2023/04/02 14:14:52;;;;;;;6.07;1.80;;;;;;;;;;4969762;28;20206;-66
2023/04/02 14:17:21;;;;;;;5.20;1.58;;;;;;;;;;4969008;28;20253;-66
2023/04/02 14:19:48;;;;;;;3.15;1.35;;;;;;;;;;4956807;28;20202;-66
2023/04/02 14:22:13;;;;;;;3.47;1.25;;;;;;;;;;4941928;28;20218;-66
2023/04/02 14:24:42;;;;;;;3.80;1.33;;;;;;;;;;4943423;28;20704;-66
2023/04/02 14:27:13;;;;;;;5.18;1.75;;;;;;;;;;4926768;28;20305;-66
2023/04/02 14:29:46;;;;;;;4.05;1.60;;;;;;;;;;4950913;28;20704;-66
2023/04/02 14:32:14;;;;;;;5.32;1.60;;;;;;;;;;4933115;28;20737;-66
2023/04/02 14:34:57;;;;;;;4.95;1.60;;;;;;;;;;4950121;28;20222;-67
2023/04/02 14:37:29;;;;;;;3.42;1.60;;;;;;;;;;4950566;28;20214;-65
2023/04/02 14:39:57;;;;;;;4.97;1.75;;;;;;;;;;4950646;28;20342;-70
2023/04/02 14:42:31;;;;;;;4.32;1.30;;;;;;;;;;4948447;28;20218;-67
2023/04/02 14:45:08;;;;;;;6.03;1.75;;;;;;;;;;4937882;28;20210;-67
2023/04/02 14:47:44;;;;;;;6.45;1.40;;;;;;;;;;4934986;28;20792;-68